createdAt,value
2022-11-24T00:00:29.722Z,4.30
2022-11-24T00:02:56.948Z,3.65
2022-11-24T00:05:23.451Z,3.17
2022-11-24T00:07:49.910Z,4.20
2022-11-24T00:10:16.681Z,3.03
2022-11-24T00:12:43.146Z,3.47
2022-11-24T00:15:10.084Z,2.85
2022-11-24T00:17:36.466Z,3.28
2022-11-24T00:20:03.119Z,3.60
2022-11-24T00:22:29.498Z,3.47
2022-11-24T00:24:55.897Z,3.72
2022-11-24T00:27:22.329Z,3.47
2022-11-24T00:29:48.789Z,3.53
2022-11-24T00:32:15.406Z,3.67
2022-11-24T00:34:41.712Z,3.60
2022-11-24T00:37:08.166Z,3.42
2022-11-24T00:39:34.658Z,3.50
2022-11-24T00:42:01.355Z,4.85
2022-11-24T00:44:27.687Z,3.15
2022-11-24T00:46:54.397Z,3.42
2022-11-24T00:49:20.797Z,3.00
2022-11-24T00:51:47.162Z,3.25
2022-11-24T00:54:13.626Z,4.07
2022-11-24T00:56:40.195Z,3.35
2022-11-24T00:59:06.585Z,3.78
2022-11-24T01:01:33.145Z,3.17
2022-11-24T01:04:00.681Z,3.08
2022-11-24T01:06:28.505Z,3.83
2022-11-24T01:08:57.097Z,3.45
2022-11-24T01:11:25.439Z,3.55
2022-11-24T01:13:54.845Z,4.07
2022-11-24T01:16:29.554Z,3.30
2022-11-24T01:18:56.265Z,3.05
2022-11-24T01:21:23.140Z,3.17
2022-11-24T01:23:50.540Z,2.97
2022-11-24T01:26:20.856Z,3.30
2022-11-24T01:28:48.029Z,2.80
2022-11-24T01:31:16.188Z,3.75
2022-11-24T01:33:43.193Z,3.28
2022-11-24T01:36:09.715Z,3.30
2022-11-24T01:38:36.130Z,3.35
2022-11-24T01:41:10.030Z,4.03
2022-11-24T01:43:36.986Z,3.95
2022-11-24T01:46:26.604Z,3.72
2022-11-24T01:49:03.071Z,3.90
2022-11-24T01:51:33.546Z,3.85
2022-11-24T01:54:08.949Z,3.25
2022-11-24T01:56:40.326Z,3.83
2022-11-24T01:59:11.246Z,4.07
2022-11-24T02:04:11.854Z,3.50
2022-11-24T02:06:41.391Z,3.20
2022-11-24T02:09:21.704Z,3.50
2022-11-24T02:11:48.319Z,4.22
2022-11-24T02:14:17.918Z,3.20
2022-11-24T02:16:49.464Z,2.80
2022-11-24T02:19:41.436Z,3.17
2022-11-24T02:22:17.149Z,2.88
2022-11-24T02:25:04.260Z,3.08
2022-11-24T02:27:31.027Z,3.55
2022-11-24T02:29:57.571Z,2.88
2022-11-24T02:32:24.281Z,2.70
2022-11-24T02:34:59.849Z,2.90
2022-11-24T02:37:26.235Z,3.00
2022-11-24T02:39:52.774Z,2.45
2022-11-24T02:42:19.631Z,2.22
2022-11-24T02:44:50.930Z,3.30
2022-11-24T02:47:17.265Z,2.50
2022-11-24T02:49:43.573Z,2.78
2022-11-24T02:52:10.036Z,2.25
2022-11-24T02:54:36.846Z,3.05
2022-11-24T02:57:03.610Z,2.17
2022-11-24T02:59:30.030Z,2.33
2022-11-24T03:01:56.578Z,2.05
2022-11-24T03:04:23.090Z,2.10
2022-11-24T03:06:49.405Z,2.60
2022-11-24T03:09:15.873Z,2.33
2022-11-24T03:11:42.402Z,2.10
2022-11-24T03:14:08.975Z,3.00
2022-11-24T03:16:35.660Z,2.42
2022-11-24T03:19:02.765Z,2.75
2022-11-24T03:21:29.509Z,2.15
2022-11-24T03:23:56.424Z,2.42
2022-11-24T03:26:24.604Z,2.53
2022-11-24T03:28:54.223Z,2.53
2022-11-24T03:31:21.136Z,2.72
2022-11-24T03:33:47.829Z,2.45
2022-11-24T03:36:14.237Z,2.60
2022-11-24T03:38:40.838Z,2.45
2022-11-24T03:41:07.218Z,2.88
2022-11-24T03:43:34.537Z,3.42
2022-11-24T03:46:03.495Z,3.70
2022-11-24T03:48:29.926Z,4.03
2022-11-24T03:50:59.495Z,3.20
2022-11-24T03:53:27.886Z,3.25
2022-11-24T03:55:55.090Z,3.63
2022-11-24T03:58:21.857Z,2.53
2022-11-24T04:00:50.093Z,2.90
2022-11-24T04:03:16.766Z,2.50
2022-11-24T04:05:43.256Z,3.10
2022-11-24T04:08:09.647Z,2.97
2022-11-24T04:10:37.738Z,3.17
2022-11-24T04:13:10.146Z,2.63
2022-11-24T04:15:39.015Z,2.97
2022-11-24T04:18:05.610Z,3.08
2022-11-24T04:20:32.418Z,3.20
2022-11-24T04:22:58.789Z,2.80
2022-11-24T04:25:25.298Z,2.70
2022-11-24T04:27:53.260Z,2.90
2022-11-24T04:30:20.802Z,3.72
2022-11-24T04:32:47.767Z,2.50
2022-11-24T04:35:14.469Z,3.42
2022-11-24T04:37:41.176Z,3.63
2022-11-24T04:40:09.834Z,3.03
2022-11-24T04:42:36.250Z,2.97
2022-11-24T04:45:02.963Z,3.20
2022-11-24T04:47:29.558Z,4.95
2022-11-24T04:49:56.063Z,4.40
2022-11-24T04:52:24.073Z,4.95
2022-11-24T04:54:51.278Z,3.83
2022-11-24T04:57:20.152Z,2.97
2022-11-24T04:59:46.608Z,2.72
2022-11-24T05:02:13.001Z,2.13
2022-11-24T05:04:39.790Z,2.15
2022-11-24T05:07:06.464Z,3.10
2022-11-24T05:09:58.073Z,2.63
2022-11-24T05:12:19.791Z,3.03
2022-11-24T05:14:46.159Z,3.53
2022-11-24T05:17:12.816Z,3.90
2022-11-24T05:19:39.479Z,5.60
2022-11-24T05:22:05.869Z,10.27
2022-11-24T05:24:32.506Z,11.45
2022-11-24T05:26:59.538Z,8.73
2022-11-24T05:29:26.218Z,7.22
2022-11-24T05:31:52.660Z,6.38
2022-11-24T05:34:19.114Z,3.30
2022-11-24T05:36:45.478Z,3.65
2022-11-24T05:39:11.879Z,3.00
2022-11-24T05:41:38.382Z,4.93
2022-11-24T05:44:04.995Z,5.65
2022-11-24T05:46:31.726Z,3.67
2022-11-24T05:48:58.498Z,3.63
2022-11-24T05:51:24.898Z,3.25
2022-11-24T05:53:51.546Z,3.63
2022-11-24T05:56:17.896Z,4.57
2022-11-24T05:58:44.257Z,3.40
2022-11-24T06:01:10.869Z,3.50
2022-11-24T06:03:37.509Z,3.88
2022-11-24T06:06:03.949Z,3.83
2022-11-24T06:08:31.463Z,5.32
2022-11-24T06:11:02.254Z,10.70
2022-11-24T06:13:28.699Z,9.93
2022-11-24T06:15:55.513Z,10.23
2022-11-24T06:18:22.137Z,13.88
2022-11-24T06:21:09.189Z,13.73
2022-11-24T06:23:35.688Z,14.52
2022-11-24T06:26:02.051Z,14.05
2022-11-24T06:28:28.428Z,14.48
2022-11-24T06:30:55.016Z,11.32
2022-11-24T06:33:21.808Z,10.40
2022-11-24T06:35:48.354Z,7.18
2022-11-24T06:38:14.749Z,8.10
2022-11-24T06:40:41.280Z,8.70
2022-11-24T06:43:07.638Z,8.60
2022-11-24T06:45:34.197Z,6.97
2022-11-24T06:48:00.755Z,6.38
2022-11-24T06:50:33.303Z,6.40
2022-11-24T06:52:59.957Z,5.85
2022-11-24T06:55:26.431Z,4.60
2022-11-24T06:57:53.113Z,4.93
2022-11-24T07:00:19.735Z,4.53
2022-11-24T07:02:46.414Z,4.13
2022-11-24T07:05:12.826Z,4.55
2022-11-24T07:07:39.497Z,5.40
2022-11-24T07:10:06.996Z,5.05
2022-11-24T07:12:36.203Z,4.82
2022-11-24T07:15:02.593Z,6.10
2022-11-24T07:17:29.134Z,8.80
2022-11-24T07:19:55.474Z,7.13
2022-11-24T07:22:21.811Z,5.80
2022-11-24T07:24:48.292Z,7.65
2022-11-24T07:27:14.831Z,6.65
2022-11-24T07:29:41.290Z,6.90
2022-11-24T07:32:07.667Z,7.55
2022-11-24T07:34:34.341Z,10.23
2022-11-24T07:37:01.184Z,9.43
2022-11-24T07:39:27.611Z,10.23
2022-11-24T07:41:55.279Z,9.65
2022-11-24T07:44:21.661Z,7.63
2022-11-24T07:46:48.126Z,8.43
2022-11-24T07:49:14.425Z,7.75
2022-11-24T07:51:41.169Z,8.48
2022-11-24T07:54:07.662Z,8.43
2022-11-24T07:56:34.021Z,7.80
2022-11-24T07:59:00.560Z,8.77
2022-11-24T08:01:27.255Z,8.50
2022-11-24T08:03:54.011Z,9.73
2022-11-24T08:06:27.319Z,11.98
2022-11-24T08:08:55.965Z,9.48
2022-11-24T08:11:22.793Z,9.68
2022-11-24T08:13:49.365Z,9.90
2022-11-24T08:16:18.412Z,10.02
2022-11-24T08:18:53.183Z,12.32
2022-11-24T08:21:20.520Z,10.30
2022-11-24T08:23:46.990Z,12.20
2022-11-24T08:26:15.905Z,12.77
2022-11-24T08:28:42.497Z,13.45
2022-11-24T08:31:13.236Z,10.18
2022-11-24T08:33:40.335Z,11.00
2022-11-24T08:36:09.387Z,10.73
2022-11-24T08:38:36.632Z,10.93
2022-11-24T08:41:05.957Z,11.18
2022-11-24T08:43:33.295Z,8.48
2022-11-24T08:46:05.754Z,7.68
2022-11-24T08:48:32.908Z,6.53
2022-11-24T08:51:05.740Z,7.45
2022-11-24T08:53:33.457Z,8.43
2022-11-24T08:56:00.665Z,8.98
2022-11-24T08:58:28.787Z,8.27
2022-11-24T09:00:55.367Z,7.82
2022-11-24T09:03:21.893Z,8.30
2022-11-24T09:05:52.756Z,7.43
2022-11-24T09:08:19.522Z,7.53
2022-11-24T09:10:46.117Z,7.00
2022-11-24T09:13:12.558Z,6.20
2022-11-24T09:15:39.088Z,5.90
2022-11-24T09:18:06.494Z,6.32
2022-11-24T09:20:32.975Z,6.13
2022-11-24T09:22:59.287Z,6.60
2022-11-24T09:25:25.708Z,7.20
2022-11-24T09:27:52.048Z,6.53
2022-11-24T09:30:18.529Z,6.05
2022-11-24T09:32:45.113Z,6.38
2022-11-24T09:35:11.460Z,6.22
2022-11-24T09:37:37.827Z,5.72
2022-11-24T09:40:04.871Z,5.60
2022-11-24T09:42:46.909Z,4.90
2022-11-24T09:45:48.940Z,5.85
2022-11-24T09:48:23.977Z,5.15
2022-11-24T09:50:52.335Z,4.75
2022-11-24T09:53:50.385Z,4.72
2022-11-24T09:56:17.132Z,3.83
2022-11-24T09:58:47.400Z,4.05
2022-11-24T10:01:24.195Z,4.90
2022-11-24T10:03:52.135Z,5.68
2022-11-24T10:06:24.235Z,4.90
2022-11-24T10:09:18.174Z,3.92
2022-11-24T10:12:02.743Z,4.53
2022-11-24T10:14:39.700Z,5.20
2022-11-24T10:17:12.156Z,3.42
2022-11-24T10:19:53.689Z,3.00
2022-11-24T10:22:42.226Z,3.53
2022-11-24T10:25:35.266Z,3.13
2022-11-24T10:28:14.844Z,3.13
2022-11-24T10:30:42.470Z,3.78
2022-11-24T10:33:24.272Z,3.85
2022-11-24T10:36:00.688Z,2.83
2022-11-24T10:38:34.985Z,3.05
2022-11-24T10:41:16.748Z,2.17
2022-11-24T10:43:43.414Z,3.03
2022-11-24T10:46:15.196Z,4.00
2022-11-24T10:48:58.657Z,3.60
2022-11-24T10:51:38.873Z,2.65
2022-11-24T10:54:25.779Z,2.13
2022-11-24T10:56:54.359Z,3.08
2022-11-24T10:59:25.598Z,2.50
2022-11-24T11:01:52.897Z,1.70
2022-11-24T11:04:27.683Z,1.60
2022-11-24T11:07:15.516Z,1.40
2022-11-24T11:09:42.026Z,1.23
2022-11-24T11:12:43.390Z,1.90
2022-11-24T11:15:30.156Z,1.77
2022-11-24T11:18:00.478Z,1.35
2022-11-24T11:20:34.321Z,1.58
2022-11-24T11:23:13.401Z,1.75
2022-11-24T11:25:39.828Z,1.60
2022-11-24T11:28:29.304Z,1.48
2022-11-24T11:31:16.361Z,1.48
2022-11-24T11:34:09.390Z,1.23
2022-11-24T11:36:43.962Z,1.35
2022-11-24T11:39:46.978Z,2.80
2022-11-24T11:45:35.769Z,1.45
2022-11-24T11:48:02.111Z,2.58
2022-11-24T11:51:22.967Z,1.10
2022-11-24T11:54:22.242Z,1.00
2022-11-24T11:56:55.495Z,2.60
2022-11-24T11:59:21.773Z,1.83
2022-11-24T12:02:26.816Z,1.33
2022-11-24T12:04:58.636Z,1.40
2022-11-24T12:07:52.105Z,1.58
2022-11-24T12:10:50.096Z,1.40
2022-11-24T12:13:49.366Z,0.95
2022-11-24T12:16:39.335Z,1.33
2022-11-24T12:19:20.799Z,1.48
2022-11-24T12:21:59.802Z,3.95
2022-11-24T12:24:47.774Z,4.40
2022-11-24T12:27:32.268Z,3.40
2022-11-24T12:30:10.025Z,2.42
2022-11-24T12:33:04.993Z,2.28
2022-11-24T12:35:40.891Z,1.92
2022-11-24T12:38:25.938Z,1.80
2022-11-24T12:41:40.952Z,1.50
2022-11-24T12:44:30.700Z,1.52
2022-11-24T12:47:12.238Z,1.63
2022-11-24T12:50:08.934Z,1.42
2022-11-24T12:52:55.593Z,1.83
2022-11-24T12:55:25.514Z,1.40
2022-11-24T12:58:11.469Z,1.80
2022-11-24T13:01:04.784Z,1.80
2022-11-24T13:03:43.504Z,1.65
2022-11-24T13:06:20.384Z,2.05
2022-11-24T13:08:47.315Z,2.20
2022-11-24T13:11:22.506Z,2.00
2022-11-24T13:14:24.650Z,2.10
2022-11-24T13:19:49.891Z,2.67
2022-11-24T13:22:25.959Z,2.10
2022-11-24T13:25:20.991Z,2.22
2022-11-24T13:27:53.034Z,1.75
2022-11-24T13:30:34.708Z,2.60
2022-11-24T13:33:27.323Z,2.00
2022-11-24T13:36:02.902Z,1.80
2022-11-24T13:38:52.378Z,1.45
2022-11-24T13:41:41.903Z,2.47
2022-11-24T13:44:14.457Z,1.65
2022-11-24T13:47:04.761Z,1.45
2022-11-24T13:52:39.669Z,1.80
2022-11-24T13:55:12.027Z,3.08
2022-11-24T13:57:44.510Z,7.07
2022-11-24T14:00:35.355Z,7.38
2022-11-24T14:03:24.525Z,12.57
2022-11-24T14:05:53.245Z,8.20
2022-11-24T14:08:25.265Z,6.78
2022-11-24T14:10:53.810Z,7.18
2022-11-24T14:13:23.370Z,5.78
2022-11-24T14:16:20.331Z,3.90
2022-11-24T14:18:51.823Z,3.40
2022-11-24T14:21:28.700Z,3.00
2022-11-24T14:23:58.594Z,2.38
2022-11-24T14:26:37.824Z,3.70
2022-11-24T14:29:15.007Z,2.58
2022-11-24T14:31:43.040Z,2.58
2022-11-24T14:34:12.344Z,3.30
2022-11-24T14:36:39.802Z,2.72
2022-11-24T14:39:07.287Z,1.70
2022-11-24T14:41:34.104Z,1.95
2022-11-24T14:44:06.431Z,2.05
2022-11-24T14:46:33.225Z,2.17
2022-11-24T14:49:00.070Z,2.90
2022-11-24T14:51:30.280Z,1.83
2022-11-24T14:54:00.072Z,2.58
2022-11-24T14:56:38.121Z,1.85
2022-11-24T14:59:21.222Z,1.83
2022-11-24T15:01:47.743Z,2.22
2022-11-24T15:07:21.658Z,1.50
2022-11-24T15:09:48.107Z,2.33
2022-11-24T15:12:28.218Z,2.67
2022-11-24T15:14:58.693Z,2.47
2022-11-24T15:17:28.055Z,3.85
2022-11-24T15:19:59.612Z,2.40
2022-11-24T15:22:40.765Z,3.60
2022-11-24T15:25:33.623Z,2.85
2022-11-24T15:28:00.788Z,3.17
2022-11-24T15:30:27.890Z,3.33
2022-11-24T15:32:56.630Z,3.15
2022-11-24T15:35:25.490Z,1.83
2022-11-24T15:37:52.319Z,2.10
2022-11-24T15:40:19.016Z,1.95
2022-11-24T15:42:54.665Z,2.08
2022-11-24T15:45:24.378Z,1.80
2022-11-24T15:47:51.010Z,1.65
2022-11-24T15:50:18.621Z,1.90
2022-11-24T15:52:46.150Z,2.70
2022-11-24T15:55:21.335Z,2.25
2022-11-24T15:57:48.484Z,2.00
2022-11-24T16:00:22.942Z,2.25
2022-11-24T16:02:49.749Z,2.72
2022-11-24T16:05:17.334Z,2.40
2022-11-24T16:07:44.686Z,2.67
2022-11-24T16:10:28.175Z,2.70
2022-11-24T16:12:54.934Z,2.45
2022-11-24T16:15:21.460Z,1.95
2022-11-24T16:17:47.953Z,1.85
2022-11-24T16:20:14.685Z,3.17
2022-11-24T16:22:41.396Z,3.47
2022-11-24T16:25:08.104Z,2.40
2022-11-24T16:27:34.610Z,2.08
2022-11-24T16:30:02.697Z,2.20
2022-11-24T16:32:29.046Z,2.45
2022-11-24T16:34:55.424Z,2.22
2022-11-24T16:37:22.003Z,2.22
2022-11-24T16:39:50.307Z,4.13
2022-11-24T16:42:16.886Z,3.55
2022-11-24T16:44:43.324Z,3.90
2022-11-24T16:47:09.885Z,3.55
2022-11-24T16:49:36.443Z,3.50
2022-11-24T16:52:02.820Z,4.40
2022-11-24T16:54:29.517Z,3.70
2022-11-24T16:56:55.879Z,4.32
2022-11-24T16:59:22.444Z,4.78
2022-11-24T17:01:48.963Z,6.43
2022-11-24T17:04:15.627Z,6.13
2022-11-24T17:06:42.671Z,6.95
2022-11-24T17:09:09.968Z,6.30
2022-11-24T17:11:36.626Z,5.70
2022-11-24T17:14:03.204Z,6.03
2022-11-24T17:16:30.104Z,5.72
2022-11-24T17:24:35.653Z,5.10
2022-11-24T17:27:02.196Z,4.93
2022-11-24T17:29:28.493Z,5.32
2022-11-24T17:31:55.002Z,5.57
2022-11-24T17:34:21.430Z,6.22
2022-11-24T17:36:47.877Z,5.80
2022-11-24T17:39:14.351Z,5.75
2022-11-24T17:41:43.295Z,4.45
2022-11-24T17:44:10.130Z,4.65
2022-11-24T17:46:36.711Z,4.85
2022-11-24T17:49:11.567Z,5.30
2022-11-24T17:51:37.950Z,5.28
2022-11-24T17:54:24.658Z,5.38
2022-11-24T17:56:50.890Z,7.38
2022-11-24T17:59:17.343Z,6.65
2022-11-24T18:01:43.711Z,5.68
2022-11-24T18:04:10.374Z,7.63
2022-11-24T18:06:38.281Z,7.68
2022-11-24T18:09:05.004Z,9.52
2022-11-24T18:11:32.372Z,11.82
2022-11-24T18:14:02.117Z,12.38
2022-11-24T18:16:35.364Z,9.83
2022-11-24T18:19:08.665Z,9.00
2022-11-24T18:21:37.239Z,8.10
2022-11-24T18:24:04.182Z,7.82
2022-11-24T18:26:30.491Z,8.88
2022-11-24T18:28:56.822Z,8.25
2022-11-24T18:31:23.214Z,7.53
2022-11-24T18:33:49.952Z,7.80
2022-11-24T18:36:19.052Z,6.93
2022-11-24T18:38:45.524Z,7.40
2022-11-24T18:41:13.962Z,8.15
2022-11-24T18:43:41.744Z,7.60
2022-11-24T18:46:18.138Z,7.43
2022-11-24T18:48:46.396Z,7.43
2022-11-24T18:51:13.347Z,7.28
2022-11-24T18:53:41.948Z,10.20
2022-11-24T18:56:13.764Z,11.52
2022-11-24T18:58:40.134Z,10.10
2022-11-24T19:01:15.349Z,8.13
2022-11-24T19:03:50.010Z,7.47
2022-11-24T19:06:29.986Z,6.78
2022-11-24T19:08:56.333Z,8.20
2022-11-24T19:11:23.924Z,11.00
2022-11-24T19:13:51.173Z,11.48
2022-11-24T19:16:19.174Z,11.10
2022-11-24T19:18:50.379Z,11.35
2022-11-24T19:21:20.370Z,11.90
2022-11-24T19:23:46.947Z,9.93
2022-11-24T19:26:16.461Z,9.57
2022-11-24T19:28:43.741Z,8.77
2022-11-24T19:31:15.313Z,9.35
2022-11-24T19:33:42.238Z,9.45
2022-11-24T19:36:17.658Z,10.13
2022-11-24T19:38:49.509Z,9.70
2022-11-24T19:41:16.178Z,9.95
2022-11-24T19:43:42.576Z,10.10
2022-11-24T19:46:13.801Z,9.43
2022-11-24T19:48:42.591Z,8.93
2022-11-24T19:51:12.968Z,9.00
2022-11-24T19:53:39.464Z,9.50
2022-11-24T19:56:22.822Z,8.75
2022-11-24T19:58:50.663Z,8.63
2022-11-24T20:01:21.257Z,10.82
2022-11-24T20:03:54.990Z,9.55
2022-11-24T20:06:21.534Z,8.07
2022-11-24T20:08:47.850Z,7.68
2022-11-24T20:11:18.942Z,9.20
2022-11-24T20:13:46.874Z,10.40
2022-11-24T20:16:23.553Z,9.83
2022-11-24T20:18:49.998Z,9.77
2022-11-24T20:21:19.724Z,10.87
2022-11-24T20:23:52.413Z,10.50
2022-11-24T20:26:20.986Z,12.40
2022-11-24T20:28:47.675Z,11.70
2022-11-24T20:31:20.932Z,9.83
2022-11-24T20:33:49.638Z,12.37
2022-11-24T20:36:22.922Z,10.77
2022-11-24T20:38:50.806Z,10.43
2022-11-24T20:41:20.145Z,10.98
2022-11-24T20:43:47.953Z,9.43
2022-11-24T20:46:17.521Z,10.50
2022-11-24T20:48:44.442Z,11.47
2022-11-24T20:51:13.675Z,11.47
2022-11-24T20:53:40.835Z,11.50
2022-11-24T20:56:17.320Z,11.87
2022-11-24T20:58:43.743Z,11.50
2022-11-24T21:01:13.764Z,11.50
2022-11-24T21:03:43.472Z,12.82
2022-11-24T21:06:11.378Z,13.90
2022-11-24T21:08:40.664Z,12.87
2022-11-24T21:11:09.066Z,12.07
2022-11-24T21:13:36.468Z,12.73
2022-11-24T21:16:18.149Z,10.83
2022-11-24T21:18:48.171Z,11.80
2022-11-24T21:21:14.776Z,13.82
2022-11-24T21:23:41.151Z,12.10
2022-11-24T21:26:13.067Z,11.37
2022-11-24T21:28:43.825Z,10.17
2022-11-24T21:31:13.345Z,11.20
2022-11-24T21:33:41.545Z,11.37
2022-11-24T21:36:08.833Z,10.53
2022-11-24T21:38:35.225Z,12.53
2022-11-24T21:41:06.538Z,12.10
2022-11-24T21:43:33.315Z,9.93
2022-11-24T21:46:06.603Z,10.00
2022-11-24T21:48:34.736Z,10.93
2022-11-24T21:51:04.073Z,9.30
2022-11-24T21:53:32.656Z,10.77
2022-11-24T21:56:01.082Z,9.87
2022-11-24T21:58:28.522Z,10.87
2022-11-24T22:01:00.671Z,13.50
2022-11-24T22:03:27.169Z,11.53
2022-11-24T22:05:59.413Z,10.57
2022-11-24T22:08:28.014Z,11.23
2022-11-24T22:11:00.106Z,10.37
2022-11-24T22:13:26.683Z,10.40
2022-11-24T22:16:04.729Z,12.00
2022-11-24T22:18:36.296Z,12.87
2022-11-24T22:21:04.415Z,12.90
2022-11-24T22:23:32.509Z,11.20
2022-11-24T22:26:08.017Z,12.50
2022-11-24T22:28:35.862Z,12.47
2022-11-24T22:31:27.265Z,13.30
2022-11-24T22:33:55.180Z,12.07
2022-11-24T22:36:23.554Z,12.20
2022-11-24T22:38:58.356Z,11.87
2022-11-24T22:41:26.867Z,12.13
2022-11-24T22:43:53.710Z,12.60
2022-11-24T22:46:22.277Z,12.30
2022-11-24T22:48:49.911Z,11.10
2022-11-24T22:51:18.875Z,12.57
2022-11-24T22:53:50.057Z,11.17
2022-11-24T22:56:17.118Z,10.60
2022-11-24T22:58:43.504Z,11.43
2022-11-24T23:01:15.123Z,10.80
2022-11-24T23:03:42.164Z,10.90
2022-11-24T23:06:12.540Z,9.80
2022-11-24T23:08:39.324Z,10.60
2022-11-24T23:11:20.300Z,12.30
2022-11-24T23:16:16.667Z,11.87
2022-11-24T23:18:44.440Z,13.30
2022-11-24T23:21:25.822Z,12.23
2022-11-24T23:23:53.034Z,11.13
2022-11-24T23:26:21.987Z,13.37
2022-11-24T23:28:48.452Z,11.87
2022-11-24T23:31:17.886Z,11.40
2022-11-24T23:33:44.985Z,11.80
2022-11-24T23:36:18.971Z,11.43
2022-11-24T23:38:46.170Z,11.63
2022-11-24T23:41:15.363Z,12.60
2022-11-24T23:43:43.073Z,12.53
2022-11-24T23:46:15.496Z,13.83
2022-11-24T23:48:42.366Z,13.53
2022-11-24T23:51:16.154Z,13.73
2022-11-24T23:53:43.110Z,12.40
2022-11-24T23:56:12.600Z,13.60
2022-11-24T23:58:40.832Z,13.60
